SABE/AEP METAR and TAF weather

Enter ICAO airport designator
Station Type Date Time Source
SABE METAR 2022/06/26 09:00 UTC NOAA

SABE 260900Z 08008KT 9999 BKN015 08/05 Q1027 NOSIG RMK PP000


Station Type Date Time Source
SABE Decoded METAR 2022/06/26 09:00 UTC NOAA

Aeroparque Bs. As. Aerodrome, Argentina (SABE) 34-34S 058-25W 6M
Jun 26, 2022 - 05:00 AM EDT / 2022.06.26 0900 UTC
Wind: from the E (080 degrees) at 9 MPH (8 KT):0
Visibility: greater than 7 mile(s):0
Sky conditions: mostly cloudy
Temperature: 46 F (8 C)
Dew Point: 41 F (5 C)
Relative Humidity: 81%
Pressure (altimeter): 30.33 in. Hg (1027 hPa)
ob: SABE 260900Z 08008KT 9999 BKN015 08/05 Q1027 NOSIG RMK PP000
cycle: 9

Station Type Date Time Source
SABE TAF 2022/06/26 06:25 UTC NOAA

TAF SABE 260500Z 2606/2706 10005KT 9999 SCT020 TX11/2618Z TN06/2611Z
BECMG 2608/2610 05010KT CAVOK
BECMG 2702/2704 9999 BKN030

Example: see airport list